createdAt,value
2019-04-30T00:00:30.427Z,9.80
2019-04-30T00:01:29.654Z,9.89
2019-04-30T00:02:38.360Z,9.98
2019-04-30T00:03:29.631Z,9.93
2019-04-30T00:04:34.162Z,9.89
2019-04-30T00:05:29.606Z,9.86
2019-04-30T00:06:34.342Z,9.83
2019-04-30T00:07:29.585Z,9.88
2019-04-30T00:08:30.078Z,9.86
2019-04-30T00:09:29.561Z,9.80
2019-04-30T00:10:35.802Z,9.81
2019-04-30T00:11:29.541Z,9.81
2019-04-30T00:12:31.005Z,9.75
2019-04-30T00:13:29.521Z,9.85
2019-04-30T00:14:36.900Z,9.78
2019-04-30T00:15:29.500Z,9.77
2019-04-30T00:16:31.096Z,9.83
2019-04-30T00:17:29.471Z,9.77
2019-04-30T00:18:30.782Z,9.81
2019-04-30T00:19:29.448Z,9.78
2019-04-30T00:20:29.986Z,9.74
2019-04-30T00:21:29.427Z,9.65
2019-04-30T00:22:33.901Z,9.73
2019-04-30T00:23:30.904Z,9.71
2019-04-30T00:24:29.392Z,9.60
2019-04-30T00:25:29.383Z,9.75
2019-04-30T00:26:29.373Z,9.78
2019-04-30T00:27:30.235Z,9.74
2019-04-30T00:28:29.348Z,9.80
2019-04-30T00:29:31.056Z,9.85
2019-04-30T00:30:29.328Z,9.83
2019-04-30T00:31:29.317Z,9.75
2019-04-30T00:32:29.303Z,9.80
2019-04-30T00:33:29.291Z,9.75
2019-04-30T00:34:30.887Z,9.81
2019-04-30T00:35:29.270Z,9.77
2019-04-30T00:36:34.163Z,9.83
2019-04-30T00:37:29.247Z,9.77
2019-04-30T00:38:29.467Z,9.68
2019-04-30T00:39:29.225Z,9.67
2019-04-30T00:40:30.212Z,9.71
2019-04-30T00:41:30.315Z,9.67
2019-04-30T00:42:29.190Z,9.71
2019-04-30T00:43:29.181Z,9.68
2019-04-30T00:44:29.168Z,9.73
2019-04-30T00:45:29.160Z,9.73
2019-04-30T00:46:29.562Z,9.68
2019-04-30T00:47:29.154Z,9.71
2019-04-30T00:48:31.182Z,9.73
2019-04-30T00:49:29.115Z,9.71
2019-04-30T00:50:33.063Z,9.68
2019-04-30T00:51:29.088Z,9.63
2019-04-30T00:52:29.454Z,9.71
2019-04-30T00:53:29.065Z,9.67
2019-04-30T00:54:30.818Z,9.73
2019-04-30T00:55:29.046Z,9.74
2019-04-30T00:56:29.033Z,9.60
2019-04-30T00:57:29.023Z,9.67
2019-04-30T00:58:30.180Z,9.68
2019-04-30T00:59:28.999Z,9.65
2019-04-30T01:00:29.726Z,9.67
2019-04-30T01:01:28.974Z,9.67
2019-04-30T01:02:32.041Z,9.55
2019-04-30T01:03:28.952Z,9.60
2019-04-30T01:04:28.940Z,9.59
2019-04-30T01:05:28.931Z,9.67
2019-04-30T01:06:28.920Z,9.67
2019-04-30T01:07:28.916Z,9.53
2019-04-30T01:08:28.896Z,9.63
2019-04-30T01:09:28.884Z,9.58
2019-04-30T01:10:28.874Z,9.71
2019-04-30T01:11:28.861Z,9.71
2019-04-30T01:12:33.578Z,9.59
2019-04-30T01:13:29.158Z,9.73
2019-04-30T01:14:31.935Z,9.71
2019-04-30T01:15:29.218Z,9.68
2019-04-30T01:16:32.846Z,9.71
2019-04-30T01:17:29.974Z,9.75
2019-04-30T01:18:32.030Z,9.73
2019-04-30T01:19:30.700Z,9.70
2019-04-30T01:20:32.680Z,9.70
2019-04-30T01:21:28.749Z,9.73
2019-04-30T01:22:32.763Z,9.74
2019-04-30T01:23:29.638Z,9.75
2019-04-30T01:24:31.633Z,9.67
2019-04-30T01:25:28.899Z,9.78
2019-04-30T01:26:31.023Z,9.75
2019-04-30T01:27:28.681Z,9.71
2019-04-30T01:28:28.669Z,9.75
2019-04-30T01:29:31.157Z,9.63
2019-04-30T01:30:28.651Z,9.60
2019-04-30T01:31:31.681Z,9.71
2019-04-30T01:32:28.626Z,9.74
2019-04-30T01:33:34.635Z,9.63
2019-04-30T01:34:29.453Z,9.71
2019-04-30T01:35:32.566Z,9.71
2019-04-30T01:36:29.383Z,9.71
2019-04-30T01:37:32.585Z,9.74
2019-04-30T01:38:28.777Z,9.63
2019-04-30T01:39:31.546Z,9.68
2019-04-30T01:40:28.627Z,9.73
2019-04-30T01:41:31.419Z,9.74
2019-04-30T01:42:28.509Z,9.60
2019-04-30T01:43:33.309Z,9.63
2019-04-30T01:44:29.491Z,9.67
2019-04-30T01:45:31.577Z,9.59
2019-04-30T01:46:29.185Z,9.59
2019-04-30T01:47:29.542Z,9.59
2019-04-30T01:48:29.266Z,9.52
2019-04-30T01:49:30.081Z,9.59
2019-04-30T01:50:29.255Z,9.59
2019-04-30T01:51:28.654Z,9.59
2019-04-30T01:52:29.140Z,9.58
2019-04-30T01:53:28.591Z,9.60
2019-04-30T01:54:29.120Z,9.58
2019-04-30T01:55:29.437Z,9.56
2019-04-30T01:56:28.948Z,9.48
2019-04-30T01:57:29.293Z,9.58
2019-04-30T01:58:30.051Z,9.60
2019-04-30T01:59:29.139Z,9.50
2019-04-30T02:00:29.328Z,9.56
2019-04-30T02:01:28.584Z,9.55
2019-04-30T02:02:28.680Z,9.42
2019-04-30T02:03:29.150Z,9.58
2019-04-30T02:04:29.036Z,9.60
2019-04-30T02:05:28.758Z,9.58
2019-04-30T02:06:29.431Z,9.52
2019-04-30T02:07:28.791Z,9.65
2019-04-30T02:08:29.564Z,9.59
2019-04-30T02:09:28.683Z,9.55
2019-04-30T02:10:28.592Z,9.62
2019-04-30T02:11:28.903Z,9.58
2019-04-30T02:12:29.677Z,9.60
2019-04-30T02:13:29.536Z,9.52
2019-04-30T02:14:28.719Z,9.59
2019-04-30T02:15:29.210Z,9.55
2019-04-30T02:16:28.920Z,9.56
2019-04-30T02:17:29.275Z,9.55
2019-04-30T02:18:29.686Z,9.59
2019-04-30T02:19:28.762Z,9.53
2019-04-30T02:20:28.701Z,9.59
2019-04-30T02:21:29.904Z,9.55
2019-04-30T02:22:28.854Z,9.56
2019-04-30T02:23:29.779Z,9.59
2019-04-30T02:24:28.887Z,9.63
2019-04-30T02:25:29.516Z,9.56
2019-04-30T02:26:28.601Z,9.63
2019-04-30T02:27:29.446Z,9.59
2019-04-30T02:28:29.039Z,9.60
2019-04-30T02:29:29.661Z,9.58
2019-04-30T02:30:30.847Z,9.59
2019-04-30T02:31:30.678Z,9.60
2019-04-30T02:32:30.425Z,9.60
2019-04-30T02:33:30.432Z,9.59
2019-04-30T02:34:30.294Z,9.63
2019-04-30T02:35:28.846Z,9.67
2019-04-30T02:36:29.903Z,9.59
2019-04-30T02:37:30.040Z,9.63
2019-04-30T02:38:30.095Z,9.59
2019-04-30T02:39:30.204Z,9.58
2019-04-30T02:40:30.181Z,9.67
2019-04-30T02:41:29.321Z,9.65
2019-04-30T02:42:29.734Z,9.59
2019-04-30T02:43:30.078Z,9.60
2019-04-30T02:44:29.330Z,9.67
2019-04-30T02:45:29.972Z,9.71
2019-04-30T02:46:29.224Z,9.62
2019-04-30T02:47:30.235Z,9.59
2019-04-30T02:48:29.488Z,9.71
2019-04-30T02:49:30.278Z,9.68
2019-04-30T02:50:29.392Z,9.63
2019-04-30T02:51:29.904Z,9.60
2019-04-30T02:52:29.394Z,9.58
2019-04-30T02:53:29.238Z,9.55
2019-04-30T02:54:29.639Z,9.55
2019-04-30T02:55:29.655Z,9.56
2019-04-30T02:56:29.900Z,9.56
2019-04-30T02:57:29.873Z,9.63
2019-04-30T02:58:29.391Z,9.62
2019-04-30T02:59:30.103Z,9.58
2019-04-30T03:00:29.797Z,9.58
2019-04-30T03:01:30.278Z,9.50
2019-04-30T03:02:29.151Z,9.59
2019-04-30T03:03:29.814Z,9.58
2019-04-30T03:04:29.417Z,9.65
2019-04-30T03:05:27.563Z,9.67
2019-04-30T03:06:29.746Z,9.67
2019-04-30T03:07:29.551Z,9.70
2019-04-30T03:08:29.766Z,9.60
2019-04-30T03:09:29.716Z,9.50
2019-04-30T03:10:27.514Z,9.59
2019-04-30T03:11:29.878Z,9.63
2019-04-30T03:12:30.556Z,9.65
2019-04-30T03:13:29.975Z,9.60
2019-04-30T03:14:29.888Z,9.60
2019-04-30T03:15:29.899Z,9.55
2019-04-30T03:16:30.242Z,9.60
2019-04-30T03:17:29.384Z,9.56
2019-04-30T03:18:30.058Z,9.60
2019-04-30T03:19:29.552Z,9.52
2019-04-30T03:20:35.378Z,9.62
2019-04-30T03:21:29.029Z,9.53
2019-04-30T03:22:29.981Z,9.53
2019-04-30T03:23:29.394Z,9.56
2019-04-30T03:24:29.405Z,9.55
2019-04-30T03:25:29.787Z,9.53
2019-04-30T03:26:29.630Z,9.50
2019-04-30T03:27:29.982Z,9.48
2019-04-30T03:28:29.903Z,9.49
2019-04-30T03:29:30.039Z,9.45
2019-04-30T03:30:31.509Z,9.44
2019-04-30T03:31:32.019Z,9.55
2019-04-30T03:32:35.838Z,9.56
2019-04-30T03:33:32.153Z,9.55
2019-04-30T03:34:31.861Z,9.50
2019-04-30T03:35:31.759Z,9.58
2019-04-30T03:36:27.209Z,9.58
2019-04-30T03:37:29.410Z,9.62
2019-04-30T03:38:30.026Z,9.60
2019-04-30T03:39:29.273Z,9.44
2019-04-30T03:40:30.043Z,9.42
2019-04-30T03:41:30.107Z,9.53
2019-04-30T03:42:29.441Z,9.53
2019-04-30T03:43:27.134Z,9.60
2019-04-30T03:44:31.509Z,9.52
2019-04-30T03:45:27.120Z,9.59
2019-04-30T03:46:29.770Z,9.48
2019-04-30T03:47:29.833Z,9.56
2019-04-30T03:48:29.311Z,9.48
2019-04-30T03:49:29.661Z,9.48
2019-04-30T03:50:32.851Z,9.42
2019-04-30T03:51:27.038Z,9.55
2019-04-30T03:52:29.056Z,9.52
2019-04-30T03:53:27.015Z,9.62
2019-04-30T03:54:29.147Z,9.59
2019-04-30T03:55:26.994Z,9.58
2019-04-30T03:56:29.647Z,9.63
2019-04-30T03:57:26.969Z,9.63
2019-04-30T03:58:29.141Z,9.60
2019-04-30T03:59:29.833Z,9.60
2019-04-30T04:00:26.934Z,9.56
2019-04-30T04:01:29.337Z,9.58
2019-04-30T04:02:26.911Z,9.59
2019-04-30T04:03:29.154Z,9.62
2019-04-30T04:04:26.889Z,9.58
2019-04-30T04:05:26.877Z,9.59
2019-04-30T04:06:29.109Z,9.59
2019-04-30T04:07:26.865Z,9.68
2019-04-30T04:08:29.195Z,9.65
2019-04-30T04:09:26.830Z,9.60
2019-04-30T04:10:29.667Z,9.56
2019-04-30T04:11:26.809Z,9.59
2019-04-30T04:12:29.984Z,9.58
2019-04-30T04:13:26.787Z,9.58
2019-04-30T04:14:29.480Z,9.60
2019-04-30T04:15:26.764Z,9.58
2019-04-30T04:16:29.351Z,9.49
2019-04-30T04:17:26.747Z,9.55
2019-04-30T04:18:26.731Z,9.42
2019-04-30T04:19:29.110Z,9.55
2019-04-30T04:20:26.706Z,9.60
2019-04-30T04:21:29.794Z,9.55
2019-04-30T04:22:26.682Z,9.58
2019-04-30T04:23:32.330Z,9.58
2019-04-30T04:24:26.666Z,9.59
2019-04-30T04:25:26.648Z,9.55
2019-04-30T04:26:26.637Z,9.59
2019-04-30T04:27:29.803Z,9.59
2019-04-30T04:28:26.620Z,9.62
2019-04-30T04:29:29.642Z,9.63
2019-04-30T04:30:26.593Z,9.60
2019-04-30T04:31:29.666Z,9.68
2019-04-30T04:32:26.570Z,9.65
2019-04-30T04:33:26.558Z,9.58
2019-04-30T04:34:26.549Z,9.68
2019-04-30T04:35:26.536Z,9.67
2019-04-30T04:36:26.523Z,9.67
2019-04-30T04:37:26.510Z,9.71
2019-04-30T04:38:26.501Z,9.75
2019-04-30T04:39:26.490Z,9.65
2019-04-30T04:40:26.479Z,9.70
2019-04-30T04:41:26.465Z,9.78
2019-04-30T04:42:30.029Z,9.83
2019-04-30T04:43:26.444Z,9.75
2019-04-30T04:44:26.433Z,9.73
2019-04-30T04:45:26.422Z,9.63
2019-04-30T04:46:26.407Z,9.65
2019-04-30T04:47:26.401Z,9.74
2019-04-30T04:48:26.385Z,9.74
2019-04-30T04:49:26.376Z,9.73
2019-04-30T04:50:26.369Z,9.67
2019-04-30T04:51:36.786Z,9.73
2019-04-30T04:52:26.338Z,9.80
2019-04-30T04:53:26.329Z,9.74
2019-04-30T04:54:26.318Z,9.74
2019-04-30T04:55:26.312Z,9.65
2019-04-30T04:56:26.294Z,9.63
2019-04-30T04:57:26.282Z,9.75
2019-04-30T04:58:26.272Z,9.74
2019-04-30T04:59:26.259Z,9.74
2019-04-30T05:00:26.245Z,9.73
2019-04-30T05:01:26.234Z,9.70
2019-04-30T05:02:26.222Z,9.71
2019-04-30T05:03:26.213Z,9.83
2019-04-30T05:04:26.222Z,9.85
2019-04-30T05:05:26.191Z,9.81
2019-04-30T05:06:26.178Z,9.91
2019-04-30T05:07:26.165Z,9.88
2019-04-30T05:08:26.153Z,9.78
2019-04-30T05:09:26.148Z,9.85
2019-04-30T05:10:26.131Z,9.80
2019-04-30T05:11:26.134Z,9.85
2019-04-30T05:12:26.107Z,9.80
2019-04-30T05:13:26.096Z,9.80
2019-04-30T05:14:26.085Z,9.75
2019-04-30T05:15:26.075Z,9.74
2019-04-30T05:16:26.061Z,9.74
2019-04-30T05:17:26.048Z,9.73
2019-04-30T05:18:26.040Z,9.70
2019-04-30T05:19:26.028Z,9.58
2019-04-30T05:20:26.015Z,9.65
2019-04-30T05:21:26.004Z,9.75
2019-04-30T05:22:25.991Z,9.80
2019-04-30T05:23:25.978Z,9.80
2019-04-30T05:24:25.970Z,9.81
2019-04-30T05:25:25.960Z,9.81
2019-04-30T05:26:25.946Z,9.96
2019-04-30T05:27:25.946Z,9.91
2019-04-30T05:28:25.925Z,9.99
2019-04-30T05:29:25.909Z,9.98
2019-04-30T05:30:25.900Z,9.88
2019-04-30T05:31:25.888Z,9.89
2019-04-30T05:32:25.876Z,9.98
2019-04-30T05:33:25.869Z,9.98
2019-04-30T05:34:25.854Z,9.93
2019-04-30T05:35:25.842Z,9.95
2019-04-30T05:36:25.828Z,10.04
2019-04-30T05:37:25.820Z,9.95
2019-04-30T05:38:25.806Z,9.99
2019-04-30T05:39:25.798Z,10.01
2019-04-30T05:40:25.787Z,9.98
2019-04-30T05:41:25.773Z,9.96
2019-04-30T05:42:25.765Z,9.99
2019-04-30T05:43:25.753Z,10.02
2019-04-30T05:44:25.742Z,10.04
2019-04-30T05:45:25.728Z,9.99
2019-04-30T05:46:25.715Z,9.96
2019-04-30T05:47:25.712Z,9.96
2019-04-30T05:48:25.695Z,9.93
2019-04-30T05:49:25.683Z,9.89
2019-04-30T05:50:25.672Z,9.92
2019-04-30T05:51:25.661Z,9.99
2019-04-30T05:52:25.649Z,9.93
2019-04-30T05:53:25.637Z,9.93
2019-04-30T05:54:25.628Z,9.93
2019-04-30T05:55:25.614Z,10.01
2019-04-30T05:56:25.606Z,9.95
2019-04-30T05:57:25.594Z,9.98
2019-04-30T05:58:25.584Z,10.04
2019-04-30T05:59:25.571Z,10.01
2019-04-30T06:00:25.557Z,10.01
2019-04-30T06:01:25.548Z,10.06
2019-04-30T06:02:25.539Z,10.11
2019-04-30T06:03:30.759Z,10.02
2019-04-30T06:04:25.514Z,10.14
2019-04-30T06:05:25.504Z,10.11
2019-04-30T06:06:25.491Z,10.28
2019-04-30T06:07:25.487Z,10.36
2019-04-30T06:08:25.469Z,10.26
2019-04-30T06:09:31.628Z,10.26
2019-04-30T06:10:25.447Z,10.26
2019-04-30T06:11:25.436Z,10.31
2019-04-30T06:12:25.426Z,10.26
2019-04-30T06:13:25.413Z,10.35
2019-04-30T06:14:25.402Z,10.35
2019-04-30T06:15:25.394Z,10.36
2019-04-30T06:16:25.379Z,10.35
2019-04-30T06:17:25.368Z,10.38
2019-04-30T06:18:25.366Z,10.42
2019-04-30T06:19:25.350Z,10.38
2019-04-30T06:20:25.336Z,10.46
2019-04-30T06:21:25.327Z,10.39
2019-04-30T06:22:25.315Z,10.46
2019-04-30T06:23:25.301Z,10.42
2019-04-30T06:24:28.054Z,10.57
2019-04-30T06:25:32.251Z,10.55
2019-04-30T06:26:25.270Z,10.57
2019-04-30T06:27:25.259Z,10.54
2019-04-30T06:28:25.247Z,10.52
2019-04-30T06:29:25.237Z,10.66
2019-04-30T06:30:25.228Z,10.70
2019-04-30T06:31:32.200Z,10.75
2019-04-30T06:32:25.204Z,10.78
2019-04-30T06:33:25.194Z,10.87
2019-04-30T06:34:25.186Z,10.84
2019-04-30T06:35:25.173Z,10.86
2019-04-30T06:36:25.162Z,10.91
2019-04-30T06:37:25.151Z,10.93
2019-04-30T06:38:25.141Z,10.99
2019-04-30T06:39:25.128Z,10.99
2019-04-30T06:40:25.120Z,11.02
2019-04-30T06:41:25.107Z,10.90
2019-04-30T06:42:25.097Z,10.90
2019-04-30T06:43:25.084Z,10.86
2019-04-30T06:44:34.889Z,10.95
2019-04-30T06:45:25.062Z,10.98
2019-04-30T06:46:25.054Z,11.08
2019-04-30T06:47:32.732Z,11.20
2019-04-30T06:48:25.029Z,11.23
2019-04-30T06:49:25.017Z,11.33
2019-04-30T06:50:25.011Z,11.24
2019-04-30T06:51:24.999Z,11.26
2019-04-30T06:52:24.986Z,11.21
2019-04-30T06:53:24.975Z,11.05
2019-04-30T06:54:24.965Z,11.09
2019-04-30T06:55:24.957Z,11.13
2019-04-30T06:56:24.943Z,11.19
2019-04-30T06:57:24.935Z,11.21
2019-04-30T06:58:24.925Z,11.16
2019-04-30T06:59:24.915Z,11.19
2019-04-30T07:00:32.868Z,11.17
2019-04-30T07:01:24.891Z,11.08
2019-04-30T07:02:24.879Z,11.01
2019-04-30T07:03:24.870Z,10.99
2019-04-30T07:04:24.860Z,11.05
2019-04-30T07:05:24.849Z,11.03
2019-04-30T07:06:29.843Z,11.17
2019-04-30T07:07:36.269Z,11.24
2019-04-30T07:08:36.010Z,11.28
2019-04-30T07:09:26.853Z,11.38
2019-04-30T07:10:24.794Z,11.49
2019-04-30T07:11:24.787Z,11.63
2019-04-30T07:12:27.820Z,11.70
2019-04-30T07:13:24.763Z,11.84
2019-04-30T07:14:24.753Z,11.81
2019-04-30T07:15:24.743Z,11.87
2019-04-30T07:16:24.729Z,11.93
2019-04-30T07:17:24.722Z,12.04
2019-04-30T07:18:24.714Z,12.11
2019-04-30T07:19:32.957Z,12.31
2019-04-30T07:20:24.690Z,12.31
2019-04-30T07:21:24.677Z,12.40
2019-04-30T07:22:37.681Z,12.51
2019-04-30T07:23:24.662Z,12.48
2019-04-30T07:24:24.647Z,12.41
2019-04-30T07:25:24.638Z,12.41
2019-04-30T07:26:24.821Z,12.33
2019-04-30T07:27:24.632Z,12.26
2019-04-30T07:29:24.599Z,12.30
2019-04-30T07:30:24.587Z,12.52
2019-04-30T07:31:24.580Z,12.44
2019-04-30T07:32:24.566Z,12.56
2019-04-30T07:33:24.562Z,12.62
2019-04-30T07:34:24.548Z,12.62
2019-04-30T07:35:24.535Z,12.69
2019-04-30T07:36:42.399Z,12.80
2019-04-30T07:37:24.895Z,12.77
2019-04-30T07:38:24.511Z,12.84
2019-04-30T07:39:29.295Z,12.95
2019-04-30T07:40:24.491Z,13.03
2019-04-30T07:41:24.482Z,12.94
2019-04-30T07:42:24.471Z,12.67
2019-04-30T07:43:24.462Z,12.63
2019-04-30T07:44:33.845Z,12.52
2019-04-30T07:45:25.751Z,12.30
2019-04-30T07:46:24.431Z,12.26
2019-04-30T07:47:24.424Z,12.11
2019-04-30T07:48:26.559Z,11.98
2019-04-30T07:49:24.406Z,11.88
2019-04-30T07:50:25.014Z,11.62
2019-04-30T07:51:25.024Z,11.72
2019-04-30T07:52:25.281Z,11.62
2019-04-30T07:53:24.361Z,11.62
2019-04-30T07:54:24.354Z,11.79
2019-04-30T07:55:24.345Z,11.87
2019-04-30T07:56:28.275Z,12.01
2019-04-30T07:57:24.325Z,12.12
2019-04-30T07:58:24.316Z,12.08
2019-04-30T07:59:24.307Z,12.23
2019-04-30T08:00:24.295Z,12.18
2019-04-30T08:01:24.285Z,12.29
2019-04-30T08:02:24.607Z,12.08
2019-04-30T08:03:24.572Z,12.22
2019-04-30T08:04:24.257Z,12.22
2019-04-30T08:05:24.251Z,12.26
2019-04-30T08:06:24.235Z,12.23
2019-04-30T08:07:24.269Z,12.23
2019-04-30T08:08:25.650Z,12.11
2019-04-30T08:09:24.203Z,12.15
2019-04-30T08:09:34.155Z,12.38
2019-04-30T08:10:24.196Z,12.12
2019-04-30T08:11:26.420Z,12.15
2019-04-30T08:12:30.025Z,12.12
2019-04-30T08:13:24.763Z,12.07
2019-04-30T08:14:24.667Z,12.13
2019-04-30T08:15:24.142Z,12.07
2019-04-30T08:16:24.133Z,12.08
2019-04-30T08:17:24.123Z,11.96
2019-04-30T08:18:24.115Z,12.03
2019-04-30T08:19:24.102Z,12.00
2019-04-30T08:20:24.092Z,12.01
2019-04-30T08:21:24.080Z,11.88
2019-04-30T08:22:24.070Z,11.88
2019-04-30T08:23:34.129Z,11.88
2019-04-30T08:24:24.052Z,11.85
2019-04-30T08:25:24.041Z,11.88
2019-04-30T08:26:24.032Z,11.79
2019-04-30T08:27:24.020Z,11.85
2019-04-30T08:28:24.009Z,11.75
2019-04-30T08:29:24.000Z,11.88
2019-04-30T08:30:26.919Z,11.96
2019-04-30T08:31:23.977Z,12.04
2019-04-30T08:32:23.968Z,12.23
2019-04-30T08:33:23.959Z,12.38
2019-04-30T08:34:23.950Z,12.31
2019-04-30T08:35:23.939Z,12.48
2019-04-30T08:36:23.930Z,12.58
2019-04-30T08:37:23.933Z,12.70
2019-04-30T08:38:23.910Z,12.76
2019-04-30T08:39:23.896Z,12.80
2019-04-30T08:40:23.884Z,12.71
2019-04-30T08:41:23.875Z,12.74
2019-04-30T08:42:31.807Z,12.71
2019-04-30T08:43:23.857Z,12.59
2019-04-30T08:44:23.847Z,12.54
2019-04-30T08:45:23.835Z,12.59
2019-04-30T08:46:23.832Z,12.52
2019-04-30T08:47:23.815Z,12.43
2019-04-30T08:48:23.814Z,12.54
2019-04-30T08:49:24.150Z,12.54
2019-04-30T08:50:23.797Z,12.62
2019-04-30T08:51:23.811Z,12.66
2019-04-30T08:52:23.837Z,12.73
2019-04-30T08:53:29.389Z,12.87
2019-04-30T08:54:23.799Z,12.88
2019-04-30T08:55:23.772Z,12.92
2019-04-30T08:56:23.725Z,12.95
2019-04-30T08:57:23.733Z,12.95
2019-04-30T08:58:23.710Z,13.07
2019-04-30T08:59:23.697Z,13.27
2019-04-30T09:00:23.689Z,13.27
2019-04-30T09:01:23.679Z,13.36
2019-04-30T09:02:23.673Z,13.39
2019-04-30T09:03:23.658Z,13.36
2019-04-30T09:04:23.651Z,13.38
2019-04-30T09:05:23.642Z,13.39
2019-04-30T09:06:23.632Z,13.43
2019-04-30T09:07:23.632Z,13.59
2019-04-30T09:08:23.613Z,13.62
2019-04-30T09:09:23.605Z,13.63
2019-04-30T09:10:23.594Z,13.76
2019-04-30T09:11:30.188Z,13.86
2019-04-30T09:12:23.575Z,13.88
2019-04-30T09:13:23.569Z,13.96
2019-04-30T09:14:23.556Z,14.01
2019-04-30T09:15:23.546Z,14.11
2019-04-30T09:16:23.651Z,14.13
2019-04-30T09:17:23.530Z,14.23
2019-04-30T09:18:23.519Z,14.20
2019-04-30T09:19:23.513Z,14.41
2019-04-30T09:20:23.502Z,14.45
2019-04-30T09:21:23.497Z,14.60
2019-04-30T09:22:23.485Z,14.59
2019-04-30T09:23:23.476Z,14.60
2019-04-30T09:24:23.465Z,14.61
2019-04-30T09:25:23.456Z,14.67
2019-04-30T09:26:23.450Z,14.79
2019-04-30T09:27:23.440Z,14.72
2019-04-30T09:28:23.434Z,14.82
2019-04-30T09:29:23.422Z,14.78
2019-04-30T09:30:23.416Z,14.64
2019-04-30T09:31:23.408Z,14.78
2019-04-30T09:32:23.399Z,14.74
2019-04-30T09:33:23.392Z,14.71
2019-04-30T09:34:23.381Z,14.80
2019-04-30T09:35:23.372Z,14.83
2019-04-30T09:36:23.364Z,14.95
2019-04-30T09:37:23.361Z,14.93
2019-04-30T09:38:23.346Z,15.00
2019-04-30T09:39:23.340Z,15.15
2019-04-30T09:40:23.330Z,15.25
2019-04-30T09:41:23.525Z,15.46
2019-04-30T09:42:23.314Z,15.64
2019-04-30T09:43:23.306Z,15.76
2019-04-30T09:44:23.299Z,15.89
2019-04-30T09:45:23.291Z,16.13
2019-04-30T09:46:27.012Z,16.27
2019-04-30T09:47:23.275Z,16.30
2019-04-30T09:48:23.275Z,16.30
2019-04-30T09:49:23.262Z,16.22
2019-04-30T09:50:23.253Z,16.18
2019-04-30T09:51:24.826Z,16.26
2019-04-30T09:52:23.304Z,16.27
2019-04-30T09:53:23.247Z,16.17
2019-04-30T09:54:23.528Z,15.99
2019-04-30T09:55:23.216Z,15.95
2019-04-30T09:56:23.210Z,16.01
2019-04-30T09:57:23.199Z,15.93
2019-04-30T09:58:23.195Z,15.93
2019-04-30T09:59:23.187Z,15.88
2019-04-30T10:00:23.178Z,15.66
2019-04-30T10:01:23.170Z,15.68
2019-04-30T10:02:23.164Z,15.67
2019-04-30T10:03:23.929Z,15.67
2019-04-30T10:04:23.502Z,15.71
2019-04-30T10:05:23.204Z,15.67
2019-04-30T10:06:36.058Z,15.74
2019-04-30T10:07:23.127Z,15.71
2019-04-30T10:08:23.391Z,15.66
2019-04-30T10:09:23.112Z,15.68
2019-04-30T10:10:23.108Z,15.64
2019-04-30T10:11:23.097Z,15.62
2019-04-30T10:12:23.088Z,15.59
2019-04-30T10:13:23.083Z,15.56
2019-04-30T10:14:23.076Z,15.52
2019-04-30T10:15:23.068Z,15.38
2019-04-30T10:16:23.057Z,15.40
2019-04-30T10:17:23.051Z,15.48
2019-04-30T10:18:23.046Z,15.31
2019-04-30T10:19:23.036Z,15.28
2019-04-30T10:20:23.027Z,15.09
2019-04-30T10:21:23.021Z,14.80
2019-04-30T10:22:23.014Z,14.74
2019-04-30T10:23:23.006Z,14.71
2019-04-30T10:24:22.999Z,14.79
2019-04-30T10:25:22.992Z,14.74
2019-04-30T10:26:22.985Z,14.79
2019-04-30T10:27:22.979Z,14.80
2019-04-30T10:28:22.973Z,14.87
2019-04-30T10:29:22.962Z,14.82
2019-04-30T10:30:22.951Z,14.94
2019-04-30T10:31:22.947Z,15.09
2019-04-30T10:32:22.935Z,15.03
2019-04-30T10:33:22.928Z,15.00
2019-04-30T10:34:22.920Z,15.09
2019-04-30T10:35:22.910Z,15.13
2019-04-30T10:36:22.903Z,15.11
2019-04-30T10:37:22.894Z,15.18
2019-04-30T10:38:22.889Z,15.25
2019-04-30T10:39:22.914Z,15.22
2019-04-30T10:40:22.891Z,15.25
2019-04-30T10:41:22.866Z,15.27
2019-04-30T10:42:22.859Z,15.30
2019-04-30T10:43:22.848Z,15.16
2019-04-30T10:44:22.842Z,15.35
2019-04-30T10:45:22.833Z,15.35
2019-04-30T10:46:22.824Z,15.33
2019-04-30T10:47:22.817Z,15.28
2019-04-30T10:48:22.808Z,15.34
2019-04-30T10:49:22.832Z,15.40
2019-04-30T10:50:22.802Z,15.43
2019-04-30T10:51:22.786Z,15.40
2019-04-30T10:52:22.780Z,15.43
2019-04-30T10:53:22.770Z,15.40
2019-04-30T10:54:26.284Z,15.44
2019-04-30T10:55:22.754Z,15.48
2019-04-30T10:56:22.747Z,15.43
2019-04-30T10:57:22.741Z,15.43
2019-04-30T10:58:22.740Z,15.51
2019-04-30T10:59:22.724Z,15.60
2019-04-30T11:00:22.719Z,15.56
2019-04-30T11:01:22.710Z,15.60
2019-04-30T11:02:22.702Z,15.62
2019-04-30T11:03:23.161Z,15.64
2019-04-30T11:04:22.687Z,15.66
2019-04-30T11:05:22.677Z,15.70
2019-04-30T11:06:22.669Z,15.76
2019-04-30T11:07:22.663Z,15.78
2019-04-30T11:08:22.656Z,15.78
2019-04-30T11:09:22.648Z,15.81
2019-04-30T11:10:25.161Z,15.77
2019-04-30T11:11:22.631Z,15.80
2019-04-30T11:12:22.623Z,15.78
2019-04-30T11:13:22.620Z,15.86
2019-04-30T11:14:22.611Z,15.91
2019-04-30T11:15:22.601Z,15.89
2019-04-30T11:16:22.595Z,15.86
2019-04-30T11:17:22.696Z,15.98
2019-04-30T11:18:22.753Z,15.99
2019-04-30T11:19:22.736Z,15.96
2019-04-30T11:20:22.828Z,15.99
2019-04-30T11:21:22.728Z,15.96
2019-04-30T11:22:22.760Z,16.06
2019-04-30T11:23:22.719Z,15.99
2019-04-30T11:24:22.799Z,16.07
2019-04-30T11:25:23.014Z,16.06
2019-04-30T11:26:23.116Z,16.10
2019-04-30T11:27:23.225Z,16.10
2019-04-30T11:28:23.192Z,16.08
2019-04-30T11:29:23.248Z,16.06
2019-04-30T11:30:24.341Z,15.99
2019-04-30T11:31:22.716Z,16.04
2019-04-30T11:32:22.742Z,15.96
2019-04-30T11:33:22.684Z,15.98
2019-04-30T11:34:22.464Z,15.96
2019-04-30T11:35:22.457Z,15.95
2019-04-30T11:36:22.458Z,16.08
2019-04-30T11:37:22.445Z,16.03
2019-04-30T11:38:22.433Z,16.14
2019-04-30T11:39:22.426Z,16.11
2019-04-30T11:40:31.470Z,16.08
2019-04-30T11:41:30.211Z,16.11
2019-04-30T11:42:22.405Z,16.11
2019-04-30T11:43:22.397Z,16.10
2019-04-30T11:44:31.039Z,16.16
2019-04-30T11:45:22.384Z,16.06
2019-04-30T11:46:22.375Z,16.29
2019-04-30T11:47:22.372Z,16.27
2019-04-30T11:48:22.360Z,16.23
2019-04-30T11:49:22.354Z,16.34
2019-04-30T11:50:22.349Z,16.34
2019-04-30T11:51:22.342Z,16.37
2019-04-30T11:52:22.335Z,16.36
2019-04-30T11:53:27.635Z,16.34
2019-04-30T11:54:22.319Z,16.44
2019-04-30T11:55:22.315Z,16.34
2019-04-30T11:56:22.305Z,16.33
2019-04-30T11:57:22.297Z,16.25
2019-04-30T11:58:22.289Z,16.36
2019-04-30T11:59:22.286Z,16.42
2019-04-30T12:00:22.276Z,16.27
2019-04-30T12:01:22.281Z,16.25
2019-04-30T12:02:22.263Z,16.26
2019-04-30T12:03:22.260Z,16.23
2019-04-30T12:04:22.256Z,15.99
2019-04-30T12:05:22.243Z,16.14
2019-04-30T12:06:22.233Z,16.11
2019-04-30T12:07:22.227Z,16.08
2019-04-30T12:08:22.218Z,16.18
2019-04-30T12:09:22.212Z,16.26
2019-04-30T12:10:22.205Z,16.26
2019-04-30T12:11:22.202Z,16.34
2019-04-30T12:12:22.195Z,16.30
2019-04-30T12:13:22.182Z,16.41
2019-04-30T12:14:22.177Z,16.47
2019-04-30T12:15:22.173Z,16.48
2019-04-30T12:16:22.163Z,16.44
2019-04-30T12:17:22.157Z,16.40
2019-04-30T12:18:22.150Z,16.45
2019-04-30T12:19:22.142Z,16.50
2019-04-30T12:20:22.134Z,16.45
2019-04-30T12:21:22.133Z,16.59
2019-04-30T12:22:22.121Z,16.51
2019-04-30T12:23:22.112Z,16.57
2019-04-30T12:24:22.106Z,16.54
2019-04-30T12:25:22.101Z,16.55
2019-04-30T12:26:22.092Z,16.55
2019-04-30T12:27:22.087Z,16.59
2019-04-30T12:28:22.078Z,16.73
2019-04-30T12:29:22.072Z,16.65
2019-04-30T12:30:22.066Z,16.62
2019-04-30T12:31:22.060Z,16.63
2019-04-30T12:32:22.053Z,16.77
2019-04-30T12:33:22.042Z,16.75
2019-04-30T12:34:22.040Z,16.78
2019-04-30T12:35:22.032Z,16.70
2019-04-30T12:36:22.023Z,16.52
2019-04-30T12:37:22.017Z,16.36
2019-04-30T12:38:22.010Z,16.22
2019-04-30T12:39:22.004Z,16.08
2019-04-30T12:40:28.901Z,16.17
2019-04-30T12:41:21.989Z,16.18
2019-04-30T12:42:21.981Z,16.29
2019-04-30T12:43:21.975Z,16.25
2019-04-30T12:44:21.968Z,16.30
2019-04-30T12:45:21.962Z,16.26
2019-04-30T12:46:21.971Z,16.25
2019-04-30T12:47:22.074Z,16.23
2019-04-30T12:48:21.939Z,16.18
2019-04-30T12:49:21.933Z,16.25
2019-04-30T12:50:21.926Z,16.27
2019-04-30T12:51:21.917Z,16.30
2019-04-30T12:52:21.915Z,16.22
2019-04-30T12:53:21.906Z,16.17
2019-04-30T12:54:21.898Z,16.10
2019-04-30T12:55:22.492Z,16.13
2019-04-30T12:56:27.097Z,16.11
2019-04-30T12:57:21.877Z,16.18
2019-04-30T12:58:21.871Z,15.98
2019-04-30T12:59:21.867Z,15.71
2019-04-30T13:00:21.856Z,15.71
2019-04-30T13:01:21.850Z,15.67
2019-04-30T13:02:21.844Z,15.68
2019-04-30T13:03:21.836Z,15.70
2019-04-30T13:04:21.826Z,15.64